sensor_id;sensor_type;location;lat;lon;timestamp;pressure;altitude;pressure_sealevel;temperature;humidity
71791;BME280;59638;52.126;5.434;2022-12-13T00:00:28;101522.13;;;-6.98;100.00
71791;BME280;59638;52.126;5.434;2022-12-13T00:02:55;101521.25;;;-6.97;100.00
71791;BME280;59638;52.126;5.434;2022-12-13T00:05:22;101519.50;;;-6.95;100.00
71791;BME280;59638;52.126;5.434;2022-12-13T00:07:48;101516.97;;;-6.93;100.00
71791;BME280;59638;52.126;5.434;2022-12-13T00:10:14;101518.69;;;-6.97;100.00
71791;BME280;59638;52.126;5.434;2022-12-13T00:12:41;101519.50;;;-6.95;100.00
71791;BME280;59638;52.126;5.434;2022-12-13T00:15:08;101528.03;;;-6.90;100.00
71791;BME280;59638;52.126;5.434;2022-12-13T00:17:35;101513.50;;;-6.91;100.00
71791;BME280;59638;52.126;5.434;2022-12-13T00:20:01;101505.84;;;-6.92;100.00
71791;BME280;59638;52.126;5.434;2022-12-13T00:22:28;101501.56;;;-6.95;100.00
71791;BME280;59638;52.126;5.434;2022-12-13T00:24:54;101504.16;;;-6.98;100.00
71791;BME280;59638;52.126;5.434;2022-12-13T00:27:21;101502.47;;;-7.02;100.00
71791;BME280;59638;52.126;5.434;2022-12-13T00:29:48;101501.63;;;-7.04;100.00
71791;BME280;59638;52.126;5.434;2022-12-13T00:32:15;101496.50;;;-7.05;100.00
71791;BME280;59638;52.126;5.434;2022-12-13T00:34:42;101499.94;;;-7.05;100.00
71791;BME280;59638;52.126;5.434;2022-12-13T00:37:08;101495.63;;;-7.03;100.00
71791;BME280;59638;52.126;5.434;2022-12-13T00:39:34;101493.94;;;-7.04;100.00
71791;BME280;59638;52.126;5.434;2022-12-13T00:42:01;101494.78;;;-7.06;100.00
71791;BME280;59638;52.126;5.434;2022-12-13T00:44:27;101490.53;;;-7.07;100.00
71791;BME280;59638;52.126;5.434;2022-12-13T00:46:53;101484.53;;;-7.05;100.00
71791;BME280;59638;52.126;5.434;2022-12-13T00:49:20;101487.09;;;-7.05;100.00
71791;BME280;59638;52.126;5.434;2022-12-13T00:51:46;101484.50;;;-7.02;100.00
71791;BME280;59638;52.126;5.434;2022-12-13T00:54:15;101490.50;;;-7.03;100.00
71791;BME280;59638;52.126;5.434;2022-12-13T00:56:41;101483.66;;;-7.04;100.00
71791;BME280;59638;52.126;5.434;2022-12-13T00:59:12;101481.09;;;-7.07;100.00
71791;BME280;59638;52.126;5.434;2022-12-13T01:01:39;101475.16;;;-7.09;100.00
71791;BME280;59638;52.126;5.434;2022-12-13T01:04:06;101481.16;;;-7.13;100.00
71791;BME280;59638;52.126;5.434;2022-12-13T01:06:38;101483.75;;;-7.16;100.00
71791;BME280;59638;52.126;5.434;2022-12-13T01:09:07;101476.88;;;-7.14;100.00
71791;BME280;59638;52.126;5.434;2022-12-13T01:11:35;101473.44;;;-7.13;100.00
71791;BME280;59638;52.126;5.434;2022-12-13T01:14:01;101476.88;;;-7.14;100.00
71791;BME280;59638;52.126;5.434;2022-12-13T01:16:28;101482.00;;;-7.14;100.00
71791;BME280;59638;52.126;5.434;2022-12-13T01:18:56;101482.00;;;-7.14;100.00
71791;BME280;59638;52.126;5.434;2022-12-13T01:21:23;101488.00;;;-7.15;100.00
71791;BME280;59638;52.126;5.434;2022-12-13T01:23:49;101482.06;;;-7.20;100.00
71791;BME280;59638;52.126;5.434;2022-12-13T01:26:19;101487.22;;;-7.26;100.00
71791;BME280;59638;52.126;5.434;2022-12-13T01:28:47;101485.56;;;-7.32;100.00
71791;BME280;59638;52.126;5.434;2022-12-13T01:31:17;101485.59;;;-7.36;100.00
71791;BME280;59638;52.126;5.434;2022-12-13T01:33:44;101482.19;;;-7.42;100.00
71791;BME280;59638;52.126;5.434;2022-12-13T01:36:13;101477.06;;;-7.42;100.00
71791;BME280;59638;52.126;5.434;2022-12-13T01:38:40;101477.91;;;-7.38;100.00
71791;BME280;59638;52.126;5.434;2022-12-13T01:41:09;101477.88;;;-7.35;100.00
71791;BME280;59638;52.126;5.434;2022-12-13T01:46:10;101468.53;;;-7.42;100.00
71791;BME280;59638;52.126;5.434;2022-12-13T01:48:40;101478.78;;;-7.47;100.00
71791;BME280;59638;52.126;5.434;2022-12-13T01:51:10;101471.97;;;-7.49;100.00
71791;BME280;59638;52.126;5.434;2022-12-13T01:53:39;101477.13;;;-7.54;100.00
71791;BME280;59638;52.126;5.434;2022-12-13T01:56:13;101476.31;;;-7.57;100.00
71791;BME280;59638;52.126;5.434;2022-12-13T01:58:42;101480.59;;;-7.58;100.00
71791;BME280;59638;52.126;5.434;2022-12-13T02:01:10;101473.72;;;-7.56;100.00
71791;BME280;59638;52.126;5.434;2022-12-13T02:03:36;101477.13;;;-7.54;100.00
71791;BME280;59638;52.126;5.434;2022-12-13T02:06:09;101478.84;;;-7.56;100.00
71791;BME280;59638;52.126;5.434;2022-12-13T02:08:39;101479.72;;;-7.58;100.00
71791;BME280;59638;52.126;5.434;2022-12-13T02:11:06;101480.56;;;-7.61;100.00
71791;BME280;59638;52.126;5.434;2022-12-13T02:13:36;101477.19;;;-7.66;100.00
71791;BME280;59638;52.126;5.434;2022-12-13T02:16:27;101472.09;;;-7.69;100.00
71791;BME280;59638;52.126;5.434;2022-12-13T02:25:10;101484.09;;;-7.77;100.00
71791;BME280;59638;52.126;5.434;2022-12-13T02:30:20;101478.97;;;-7.80;100.00
71791;BME280;59638;52.126;5.434;2022-12-13T02:33:10;101479.84;;;-7.84;100.00
71791;BME280;59638;52.126;5.434;2022-12-13T02:35:54;101475.56;;;-7.87;100.00
71791;BME280;59638;52.126;5.434;2022-12-13T02:38:26;101471.31;;;-7.85;100.00
71791;BME280;59638;52.126;5.434;2022-12-13T02:41:01;101469.56;;;-7.81;100.00
71791;BME280;59638;52.126;5.434;2022-12-13T02:43:44;101461.03;;;-7.82;100.00
71791;BME280;59638;52.126;5.434;2022-12-13T02:46:16;101453.34;;;-7.83;100.00
71791;BME280;59638;52.126;5.434;2022-12-13T02:48:47;101458.47;;;-7.83;100.00
71791;BME280;59638;52.126;5.434;2022-12-13T02:51:16;101455.94;;;-7.85;100.00
71791;BME280;59638;52.126;5.434;2022-12-13T02:53:43;101459.34;;;-7.83;100.00
71791;BME280;59638;52.126;5.434;2022-12-13T02:56:10;101460.19;;;-7.82;100.00
71791;BME280;59638;52.126;5.434;2022-12-13T02:58:41;101455.06;;;-7.82;100.00
71791;BME280;59638;52.126;5.434;2022-12-13T03:04:34;101461.06;;;-7.88;100.00
71791;BME280;59638;52.126;5.434;2022-12-13T03:07:28;101449.09;;;-7.84;100.00
71791;BME280;59638;52.126;5.434;2022-12-13T03:10:06;101457.59;;;-7.81;100.00
71791;BME280;59638;52.126;5.434;2022-12-13T03:12:45;101458.47;;;-7.83;100.00
71791;BME280;59638;52.126;5.434;2022-12-13T03:15:43;101453.34;;;-7.86;100.00
71791;BME280;59638;52.126;5.434;2022-12-13T03:18:16;101456.78;;;-7.87;100.00
71791;BME280;59638;52.126;5.434;2022-12-13T03:20:53;101449.09;;;-7.86;100.00
71791;BME280;59638;52.126;5.434;2022-12-13T03:23:21;101446.53;;;-7.84;100.00
71791;BME280;59638;52.126;5.434;2022-12-13T03:25:51;101450.78;;;-7.86;100.00
71791;BME280;59638;52.126;5.434;2022-12-13T03:28:19;101450.81;;;-7.85;100.00
71791;BME280;59638;52.126;5.434;2022-12-13T03:30:45;101455.91;;;-7.86;100.00
71791;BME280;59638;52.126;5.434;2022-12-13T03:33:12;101443.13;;;-7.89;100.00
71791;BME280;59638;52.126;5.434;2022-12-13T03:35:40;101449.97;;;-7.95;100.00
71791;BME280;59638;52.126;5.434;2022-12-13T03:38:12;101456.81;;;-7.97;100.00
71791;BME280;59638;52.126;5.434;2022-12-13T03:40:54;101451.69;;;-7.97;100.00
71791;BME280;59638;52.126;5.434;2022-12-13T03:43:21;101453.41;;;-7.97;100.00
71791;BME280;59638;52.126;5.434;2022-12-13T03:45:50;101457.69;;;-7.99;100.00
71791;BME280;59638;52.126;5.434;2022-12-13T03:48:16;101455.13;;;-7.98;100.00
71791;BME280;59638;52.126;5.434;2022-12-13T03:50:48;101446.56;;;-8.00;100.00
71791;BME280;59638;52.126;5.434;2022-12-13T03:53:15;101448.31;;;-8.02;100.00
71791;BME280;59638;52.126;5.434;2022-12-13T03:56:03;101439.78;;;-8.04;100.00
71791;BME280;59638;52.126;5.434;2022-12-13T03:58:30;101441.47;;;-8.06;100.00
71791;BME280;59638;52.126;5.434;2022-12-13T04:01:04;101447.50;;;-8.11;100.00
71791;BME280;59638;52.126;5.434;2022-12-13T04:03:30;101447.50;;;-8.14;100.00
71791;BME280;59638;52.126;5.434;2022-12-13T04:05:57;101454.34;;;-8.16;100.00
71791;BME280;59638;52.126;5.434;2022-12-13T04:08:23;101444.09;;;-8.19;100.00
71791;BME280;59638;52.126;5.434;2022-12-13T04:10:50;101444.94;;;-8.19;100.00
71791;BME280;59638;52.126;5.434;2022-12-13T04:13:16;101446.66;;;-8.19;100.00
71791;BME280;59638;52.126;5.434;2022-12-13T04:15:58;101447.53;;;-8.22;100.00
71791;BME280;59638;52.126;5.434;2022-12-13T04:18:25;101456.94;;;-8.24;100.00
71791;BME280;59638;52.126;5.434;2022-12-13T04:20:51;101452.66;;;-8.28;100.00
71791;BME280;59638;52.126;5.434;2022-12-13T04:23:17;101448.41;;;-8.29;100.00
71791;BME280;59638;52.126;5.434;2022-12-13T04:25:44;101450.13;;;-8.31;100.00
71791;BME280;59638;52.126;5.434;2022-12-13T04:28:11;101453.56;;;-8.35;100.00
71791;BME280;59638;52.126;5.434;2022-12-13T04:30:47;101443.31;;;-8.35;100.00
71791;BME280;59638;52.126;5.434;2022-12-13T04:33:18;101445.88;;;-8.35;100.00
71791;BME280;59638;52.126;5.434;2022-12-13T04:35:47;101442.47;;;-8.36;100.00
71791;BME280;59638;52.126;5.434;2022-12-13T04:38:14;101446.75;;;-8.36;100.00
71791;BME280;59638;52.126;5.434;2022-12-13T04:40:41;101443.28;;;-8.29;100.00
71791;BME280;59638;52.126;5.434;2022-12-13T04:43:07;101434.75;;;-8.25;100.00
71791;BME280;59638;52.126;5.434;2022-12-13T04:45:34;101435.56;;;-8.26;100.00
71791;BME280;59638;52.126;5.434;2022-12-13T04:48:01;101437.28;;;-8.22;100.00
71791;BME280;59638;52.126;5.434;2022-12-13T04:50:27;101438.13;;;-8.23;100.00
71791;BME280;59638;52.126;5.434;2022-12-13T04:52:53;101433.03;;;-8.23;100.00
71791;BME280;59638;52.126;5.434;2022-12-13T04:55:20;101427.91;;;-8.23;100.00
71791;BME280;59638;52.126;5.434;2022-12-13T04:57:46;101432.19;;;-8.25;100.00
71791;BME280;59638;52.126;5.434;2022-12-13T05:00:13;101431.31;;;-8.24;100.00
71791;BME280;59638;52.126;5.434;2022-12-13T05:02:40;101424.50;;;-8.25;100.00
71791;BME280;59638;52.126;5.434;2022-12-13T05:05:08;101422.78;;;-8.23;100.00
71791;BME280;59638;52.126;5.434;2022-12-13T05:07:37;101415.94;;;-8.24;100.00
71791;BME280;59638;52.126;5.434;2022-12-13T05:10:08;101417.66;;;-8.23;100.00
71791;BME280;59638;52.126;5.434;2022-12-13T05:12:34;101410.81;;;-8.23;100.00
71791;BME280;59638;52.126;5.434;2022-12-13T05:15:01;101418.50;;;-8.24;100.00
71791;BME280;59638;52.126;5.434;2022-12-13T05:17:27;101409.13;;;-8.28;100.00
71791;BME280;59638;52.126;5.434;2022-12-13T05:19:53;101400.59;;;-8.33;100.00
71791;BME280;59638;52.126;5.434;2022-12-13T05:22:20;101399.81;;;-8.35;100.00
71791;BME280;59638;52.126;5.434;2022-12-13T05:24:47;101397.25;;;-8.38;100.00
71791;BME280;59638;52.126;5.434;2022-12-13T05:27:14;101397.25;;;-8.38;100.00
71791;BME280;59638;52.126;5.434;2022-12-13T05:29:55;101399.81;;;-8.38;100.00
71791;BME280;59638;52.126;5.434;2022-12-13T05:32:30;101404.09;;;-8.37;100.00
71791;BME280;59638;52.126;5.434;2022-12-13T05:35:08;101398.09;;;-8.41;100.00
71791;BME280;59638;52.126;5.434;2022-12-13T05:37:34;101402.41;;;-8.44;100.00
71791;BME280;59638;52.126;5.434;2022-12-13T05:40:01;101400.69;;;-8.48;100.00
71791;BME280;59638;52.126;5.434;2022-12-13T05:42:27;101402.41;;;-8.51;100.00
71791;BME280;59638;52.126;5.434;2022-12-13T05:44:53;101393.88;;;-8.56;100.00
71791;BME280;59638;52.126;5.434;2022-12-13T05:47:20;101394.75;;;-8.58;100.00
71791;BME280;59638;52.126;5.434;2022-12-13T05:49:46;101397.28;;;-8.60;100.00
71791;BME280;59638;52.126;5.434;2022-12-13T05:52:20;101388.78;;;-8.62;100.00
71791;BME280;59638;52.126;5.434;2022-12-13T05:54:56;101392.19;;;-8.63;100.00
71791;BME280;59638;52.126;5.434;2022-12-13T05:57:26;101388.78;;;-8.62;100.00
71791;BME280;59638;52.126;5.434;2022-12-13T05:59:52;101394.75;;;-8.61;100.00
71791;BME280;59638;52.126;5.434;2022-12-13T06:02:19;101394.78;;;-8.64;100.00
71791;BME280;59638;52.126;5.434;2022-12-13T06:04:47;101399.03;;;-8.68;100.00
71791;BME280;59638;52.126;5.434;2022-12-13T06:07:13;101398.16;;;-8.67;100.00
71791;BME280;59638;52.126;5.434;2022-12-13T06:09:40;101391.38;;;-8.71;100.00
71791;BME280;59638;52.126;5.434;2022-12-13T06:12:07;101395.63;;;-8.70;100.00
71791;BME280;59638;52.126;5.434;2022-12-13T06:14:55;101396.50;;;-8.71;100.00
71791;BME280;59638;52.126;5.434;2022-12-13T06:17:34;101400.72;;;-8.73;100.00
71791;BME280;59638;52.126;5.434;2022-12-13T06:20:02;101396.50;;;-8.75;100.00
71791;BME280;59638;52.126;5.434;2022-12-13T06:22:48;101401.59;;;-8.74;100.00
71791;BME280;59638;52.126;5.434;2022-12-13T06:25:15;101399.88;;;-8.69;100.00
71791;BME280;59638;52.126;5.434;2022-12-13T06:28:00;101394.75;;;-8.63;100.00
71791;BME280;59638;52.126;5.434;2022-12-13T06:30:30;101384.53;;;-8.63;100.00
71791;BME280;59638;52.126;5.434;2022-12-13T06:32:56;101390.47;;;-8.61;100.00
71791;BME280;59638;52.126;5.434;2022-12-13T06:35:23;101389.63;;;-8.60;100.00
71791;BME280;59638;52.126;5.434;2022-12-13T06:37:55;101388.78;;;-8.62;100.00
71791;BME280;59638;52.126;5.434;2022-12-13T06:40:27;101381.13;;;-8.65;100.00
71791;BME280;59638;52.126;5.434;2022-12-13T06:42:53;101385.38;;;-8.68;100.00
71791;BME280;59638;52.126;5.434;2022-12-13T06:45:20;101379.41;;;-8.67;100.00
71791;BME280;59638;52.126;5.434;2022-12-13T06:47:46;101372.56;;;-8.65;100.00
71791;BME280;59638;52.126;5.434;2022-12-13T06:50:13;101388.81;;;-8.65;100.00
71791;BME280;59638;52.126;5.434;2022-12-13T06:52:40;101383.69;;;-8.65;100.00
71791;BME280;59638;52.126;5.434;2022-12-13T06:55:07;101392.22;;;-8.69;100.00
71791;BME280;59638;52.126;5.434;2022-12-13T06:57:33;101393.06;;;-8.70;100.00
71791;BME280;59638;52.126;5.434;2022-12-13T07:00:00;101393.06;;;-8.70;100.00
71791;BME280;59638;52.126;5.434;2022-12-13T07:02:28;101394.75;;;-8.67;100.00
71791;BME280;59638;52.126;5.434;2022-12-13T07:04:55;101395.59;;;-8.65;100.00
71791;BME280;59638;52.126;5.434;2022-12-13T07:07:23;101404.16;;;-8.68;100.00
71791;BME280;59638;52.126;5.434;2022-12-13T07:09:50;101409.28;;;-8.71;100.00
71791;BME280;59638;52.126;5.434;2022-12-13T07:12:17;101403.28;;;-8.71;100.00
71791;BME280;59638;52.126;5.434;2022-12-13T07:14:44;101412.69;;;-8.69;100.00
71791;BME280;59638;52.126;5.434;2022-12-13T07:17:11;101404.97;;;-8.66;100.00
71791;BME280;59638;52.126;5.434;2022-12-13T07:19:57;101404.13;;;-8.57;100.00
71791;BME280;59638;52.126;5.434;2022-12-13T07:22:26;101404.13;;;-8.56;100.00
71791;BME280;59638;52.126;5.434;2022-12-13T07:24:53;101404.94;;;-8.52;100.00
71791;BME280;59638;52.126;5.434;2022-12-13T07:27:19;101400.72;;;-8.55;100.00
71791;BME280;59638;52.126;5.434;2022-12-13T07:29:45;101402.44;;;-8.57;100.00
71791;BME280;59638;52.126;5.434;2022-12-13T07:32:12;101404.13;;;-8.56;100.00
71791;BME280;59638;52.126;5.434;2022-12-13T07:34:38;101416.06;;;-8.52;100.00
71791;BME280;59638;52.126;5.434;2022-12-13T07:37:04;101420.28;;;-8.46;100.00
71791;BME280;59638;52.126;5.434;2022-12-13T07:39:31;101425.44;;;-8.44;100.00
71791;BME280;59638;52.126;5.434;2022-12-13T07:41:57;101413.47;;;-8.47;100.00
71791;BME280;59638;52.126;5.434;2022-12-13T07:44:23;101419.47;;;-8.50;100.00
71791;BME280;59638;52.126;5.434;2022-12-13T07:46:50;101426.31;;;-8.52;100.00
71791;BME280;59638;52.126;5.434;2022-12-13T07:49:17;101428.84;;;-8.48;100.00
71791;BME280;59638;52.126;5.434;2022-12-13T07:51:43;101429.69;;;-8.46;100.00
71791;BME280;59638;52.126;5.434;2022-12-13T07:54:10;101424.56;;;-8.46;100.00
71791;BME280;59638;52.126;5.434;2022-12-13T07:56:36;101428.84;;;-8.44;100.00
71791;BME280;59638;52.126;5.434;2022-12-13T07:59:03;101428.81;;;-8.36;100.00
71791;BME280;59638;52.126;5.434;2022-12-13T08:01:33;101427.91;;;-8.29;100.00
71791;BME280;59638;52.126;5.434;2022-12-13T08:04:01;101426.19;;;-8.24;100.00
71791;BME280;59638;52.126;5.434;2022-12-13T08:06:27;101436.41;;;-8.21;100.00
71791;BME280;59638;52.126;5.434;2022-12-13T08:08:55;101436.41;;;-8.18;100.00
71791;BME280;59638;52.126;5.434;2022-12-13T08:11:22;101438.09;;;-8.11;100.00
71791;BME280;59638;52.126;5.434;2022-12-13T08:13:48;101431.22;;;-8.06;100.00
71791;BME280;59638;52.126;5.434;2022-12-13T08:16:14;101437.19;;;-8.01;100.00
71791;BME280;59638;52.126;5.434;2022-12-13T08:18:58;101434.63;;;-7.98;100.00
71791;BME280;59638;52.126;5.434;2022-12-13T08:21:39;101443.16;;;-7.96;100.00
71791;BME280;59638;52.126;5.434;2022-12-13T08:24:27;101445.69;;;-7.88;100.00
71791;BME280;59638;52.126;5.434;2022-12-13T08:26:57;101443.09;;;-7.83;100.00
71791;BME280;59638;52.126;5.434;2022-12-13T08:29:27;101441.38;;;-7.78;100.00
71791;BME280;59638;52.126;5.434;2022-12-13T08:32:06;101443.06;;;-7.71;100.00
71791;BME280;59638;52.126;5.434;2022-12-13T08:34:33;101443.84;;;-7.61;100.00
71791;BME280;59638;52.126;5.434;2022-12-13T08:36:59;101447.19;;;-7.49;100.00
71791;BME280;59638;52.126;5.434;2022-12-13T08:39:28;101441.97;;;-7.35;100.00
71791;BME280;59638;52.126;5.434;2022-12-13T08:41:55;101444.47;;;-7.24;100.00
71791;BME280;59638;52.126;5.434;2022-12-13T08:44:21;101446.09;;;-7.11;100.00
71791;BME280;59638;52.126;5.434;2022-12-13T08:46:48;101443.41;;;-6.97;100.00
71791;BME280;59638;52.126;5.434;2022-12-13T08:49:14;101445.88;;;-6.83;100.00
71791;BME280;59638;52.126;5.434;2022-12-13T08:51:41;101450.94;;;-6.77;100.00
71791;BME280;59638;52.126;5.434;2022-12-13T08:54:07;101442.31;;;-6.70;100.00
71791;BME280;59638;52.126;5.434;2022-12-13T08:56:36;101438.78;;;-6.57;100.00
71791;BME280;59638;52.126;5.434;2022-12-13T08:59:02;101437.75;;;-6.39;100.00
71791;BME280;59638;52.126;5.434;2022-12-13T09:01:29;101438.31;;;-6.14;100.00
71791;BME280;59638;52.126;5.434;2022-12-13T09:03:56;101444.16;;;-6.00;100.00
71791;BME280;59638;52.126;5.434;2022-12-13T09:06:22;101444.69;;;-5.77;100.00
71791;BME280;59638;52.126;5.434;2022-12-13T09:08:51;101444.19;;;-5.40;100.00
71791;BME280;59638;52.126;5.434;2022-12-13T09:11:18;101442.34;;;-5.32;100.00
71791;BME280;59638;52.126;5.434;2022-12-13T09:14:00;101436.84;;;-5.07;100.00
71791;BME280;59638;52.126;5.434;2022-12-13T09:16:27;101434.72;;;-4.84;100.00
71791;BME280;59638;52.126;5.434;2022-12-13T09:19:03;101433.03;;;-4.85;100.00
71791;BME280;59638;52.126;5.434;2022-12-13T09:21:49;101436.81;;;-4.56;100.00
71791;BME280;59638;52.126;5.434;2022-12-13T09:24:15;101436.28;;;-4.26;99.16
71791;BME280;59638;52.126;5.434;2022-12-13T09:26:50;101439.81;;;-3.48;99.37
71791;BME280;59638;52.126;5.434;2022-12-13T09:29:22;101432.69;;;-1.72;97.24
71791;BME280;59638;52.126;5.434;2022-12-13T09:31:49;101432.19;;;-1.83;95.07
71791;BME280;59638;52.126;5.434;2022-12-13T09:34:18;101433.03;;;-2.14;95.50
71791;BME280;59638;52.126;5.434;2022-12-13T09:36:45;101437.41;;;-2.16;95.63
71791;BME280;59638;52.126;5.434;2022-12-13T09:39:11;101422.84;;;-1.31;94.49
71791;BME280;59638;52.126;5.434;2022-12-13T09:41:48;101417.78;;;-0.08;90.72
71791;BME280;59638;52.126;5.434;2022-12-13T09:44:28;101418.81;;;0.35;88.96
71791;BME280;59638;52.126;5.434;2022-12-13T09:47:22;101412.84;;;0.76;87.64
71791;BME280;59638;52.126;5.434;2022-12-13T09:49:51;101406.44;;;1.27;85.33
71791;BME280;59638;52.126;5.434;2022-12-13T09:52:21;101415.19;;;0.82;84.94
71791;BME280;59638;52.126;5.434;2022-12-13T09:54:53;101410.41;;;0.94;84.26
71791;BME280;59638;52.126;5.434;2022-12-13T09:57:28;101403.84;;;0.63;84.13
71791;BME280;59638;52.126;5.434;2022-12-13T10:00:00;101405.91;;;0.55;84.53
71791;BME280;59638;52.126;5.434;2022-12-13T10:02:29;101401.31;;;0.16;83.89
71791;BME280;59638;52.126;5.434;2022-12-13T10:05:14;101405.81;;;-0.36;84.67
71791;BME280;59638;52.126;5.434;2022-12-13T10:07:51;101394.34;;;-0.05;85.29
71791;BME280;59638;52.126;5.434;2022-12-13T10:10:18;101382.22;;;0.63;84.80
71791;BME280;59638;52.126;5.434;2022-12-13T10:12:49;101391.88;;;0.37;83.68
71791;BME280;59638;52.126;5.434;2022-12-13T10:15:19;101388.81;;;-0.19;84.51
71791;BME280;59638;52.126;5.434;2022-12-13T10:17:48;101392.16;;;0.08;84.84
71791;BME280;59638;52.126;5.434;2022-12-13T10:20:21;101384.22;;;0.11;84.64
71791;BME280;59638;52.126;5.434;2022-12-13T10:22:51;101370.69;;;-0.44;84.64
71791;BME280;59638;52.126;5.434;2022-12-13T10:25:47;101378.81;;;-0.80;85.86
71791;BME280;59638;52.126;5.434;2022-12-13T10:28:18;101380.91;;;-1.43;87.01
71791;BME280;59638;52.126;5.434;2022-12-13T10:30:49;101370.03;;;-1.54;88.23
71791;BME280;59638;52.126;5.434;2022-12-13T10:33:24;101361.88;;;-1.15;88.20
71791;BME280;59638;52.126;5.434;2022-12-13T10:36:16;101374.06;;;-0.67;87.56
71791;BME280;59638;52.126;5.434;2022-12-13T10:38:55;101369.50;;;-0.36;87.73
71791;BME280;59638;52.126;5.434;2022-12-13T10:44:15;101360.94;;;0.09;86.83
71791;BME280;59638;52.126;5.434;2022-12-13T10:46:48;101346.03;;;1.00;85.65
71791;BME280;59638;52.126;5.434;2022-12-13T10:49:23;101344.06;;;1.65;83.30
71791;BME280;59638;52.126;5.434;2022-12-13T10:51:52;101349.97;;;0.89;83.36
71791;BME280;59638;52.126;5.434;2022-12-13T10:54:28;101347.84;;;1.39;83.28
71791;BME280;59638;52.126;5.434;2022-12-13T10:57:04;101351.22;;;1.00;81.70
71791;BME280;59638;52.126;5.434;2022-12-13T10:59:37;101354.19;;;0.49;82.78
71791;BME280;59638;52.126;5.434;2022-12-13T11:05:20;101346.84;;;0.80;83.92
71791;BME280;59638;52.126;5.434;2022-12-13T11:07:48;101342.84;;;1.14;83.40
71791;BME280;59638;52.126;5.434;2022-12-13T11:10:28;101343.09;;;1.28;82.68
71791;BME280;59638;52.126;5.434;2022-12-13T11:12:59;101342.03;;;0.71;82.62
71791;BME280;59638;52.126;5.434;2022-12-13T11:15:27;101344.50;;;0.09;83.52
71791;BME280;59638;52.126;5.434;2022-12-13T11:17:59;101340.34;;;-0.42;84.55
71791;BME280;59638;52.126;5.434;2022-12-13T11:20:30;101334.19;;;-0.63;85.08
71791;BME280;59638;52.126;5.434;2022-12-13T11:23:05;101342.88;;;-0.64;85.89
71791;BME280;59638;52.126;5.434;2022-12-13T11:25:38;101334.94;;;-0.85;86.25
71791;BME280;59638;52.126;5.434;2022-12-13T11:28:31;101350.91;;;-0.97;86.75
71791;BME280;59638;52.126;5.434;2022-12-13T11:33:57;101345.94;;;-1.03;88.13
71791;BME280;59638;52.126;5.434;2022-12-13T11:39:31;101335.09;;;-0.89;87.88
71791;BME280;59638;52.126;5.434;2022-12-13T11:42:26;101327.25;;;-0.88;88.54
71791;BME280;59638;52.126;5.434;2022-12-13T11:47:48;101313.22;;;-0.57;88.47
71791;BME280;59638;52.126;5.434;2022-12-13T11:50:38;101303.44;;;-0.25;87.14
71791;BME280;59638;52.126;5.434;2022-12-13T11:56:00;101300.47;;;-0.40;86.60
71791;BME280;59638;52.126;5.434;2022-12-13T11:58:38;101307.88;;;-0.29;87.13
71791;BME280;59638;52.126;5.434;2022-12-13T12:01:36;101298.75;;;0.06;86.09
71791;BME280;59638;52.126;5.434;2022-12-13T12:04:52;101293.69;;;0.03;85.82
71791;BME280;59638;52.126;5.434;2022-12-13T12:07:02;101292.28;;;0.60;85.20
71791;BME280;59638;52.126;5.434;2022-12-13T12:09:56;101280.50;;;1.52;84.10
71791;BME280;59638;52.126;5.434;2022-12-13T12:12:31;101285.78;;;1.69;81.08
71791;BME280;59638;52.126;5.434;2022-12-13T12:15:04;101280.47;;;0.94;81.56
71791;BME280;59638;52.126;5.434;2022-12-13T12:17:42;101283.69;;;1.19;82.03
71791;BME280;59638;52.126;5.434;2022-12-13T12:20:12;101287.50;;;1.31;81.38
71791;BME280;59638;52.126;5.434;2022-12-13T12:29:02;101302.97;;;0.31;82.26
71791;BME280;59638;52.126;5.434;2022-12-13T12:31:52;101297.84;;;0.07;82.40
71791;BME280;59638;52.126;5.434;2022-12-13T12:34:40;101307.66;;;-0.01;83.38
71791;BME280;59638;52.126;5.434;2022-12-13T12:37:18;101302.28;;;0.27;83.33
71791;BME280;59638;52.126;5.434;2022-12-13T12:40:03;101296.09;;;0.30;83.38
71791;BME280;59638;52.126;5.434;2022-12-13T12:42:47;101302.50;;;0.21;83.65
71791;BME280;59638;52.126;5.434;2022-12-13T12:51:37;101297.66;;;-0.10;84.24
71791;BME280;59638;52.126;5.434;2022-12-13T13:00:02;101289.94;;;0.10;84.72
71791;BME280;59638;52.126;5.434;2022-12-13T13:05:13;101292.13;;;-0.48;85.64
71791;BME280;59638;52.126;5.434;2022-12-13T13:07:45;101280.75;;;-0.67;86.36
71791;BME280;59638;52.126;5.434;2022-12-13T13:10:17;101278.75;;;-0.59;86.67
71791;BME280;59638;52.126;5.434;2022-12-13T13:12:52;101269.00;;;0.57;86.35
71791;BME280;59638;52.126;5.434;2022-12-13T13:26:27;101268.72;;;-0.93;87.81
71791;BME280;59638;52.126;5.434;2022-12-13T13:34:54;101271.25;;;-1.42;88.65
71791;BME280;59638;52.126;5.434;2022-12-13T13:37:28;101270.06;;;-1.58;89.48
71791;BME280;59638;52.126;5.434;2022-12-13T13:45:25;101260.19;;;-1.73;90.62
71791;BME280;59638;52.126;5.434;2022-12-13T13:51:12;101251.94;;;-1.84;91.33
71791;BME280;59638;52.126;5.434;2022-12-13T13:54:11;101239.09;;;-1.87;91.85
71791;BME280;59638;52.126;5.434;2022-12-13T14:02:42;101239.41;;;-1.98;92.52
71791;BME280;59638;52.126;5.434;2022-12-13T14:05:46;101226.53;;;-2.00;92.58
71791;BME280;59638;52.126;5.434;2022-12-13T14:08:38;101243.06;;;-2.04;92.38
71791;BME280;59638;52.126;5.434;2022-12-13T14:19:31;101237.19;;;-2.09;92.90
71791;BME280;59638;52.126;5.434;2022-12-13T14:22:15;101240.81;;;-2.14;92.76
71791;BME280;59638;52.126;5.434;2022-12-13T14:25:21;101239.25;;;-2.20;92.84
71791;BME280;59638;52.126;5.434;2022-12-13T14:30:36;101239.44;;;-2.26;93.13
71791;BME280;59638;52.126;5.434;2022-12-13T14:33:18;101224.09;;;-2.32;93.16
71791;BME280;59638;52.126;5.434;2022-12-13T14:35:54;101226.84;;;-2.37;93.46
71791;BME280;59638;52.126;5.434;2022-12-13T14:38:23;101226.19;;;-2.43;93.79
71791;BME280;59638;52.126;5.434;2022-12-13T14:40:53;101224.56;;;-2.48;94.27
71791;BME280;59638;52.126;5.434;2022-12-13T14:43:28;101218.63;;;-2.51;94.26